CSCL East China Sea — VRNM3 — position and weather

sailwx.info

Track history (hours):
 
Tides and Currents Weather Stations Pressure Air Temp Water Temp Dewpoint Dewpoint Depression Visibility Wind Speed Wind Dir Waves Ship Positions

CSCL East China Sea

Last reported at 2018-Jan-08 03:10 UTC. Time now 2018-Jan-20 13:05 UTC.
Position N 23°55' E 118°26'.
Warning: this ship's position is 12 days out of date.

Length 335 m; draft 12.6 m.

Type: Cargo ship. MMSI: 477848700.

Date/timePositionNaut miles runAvg speedWind from/ knotsBaromVisibWave heightAir tempDewpointWater temp
2018-Jan-08 03:10N 23°55' E 118°26'320.4
2018-Jan-08 03:00N 23°53' E 118°23'253 5.6
2018-Jan-06 05:43N 22°20' E 114°07'0 0.0
2018-Jan-05 11:13N 22°20' E 114°08'0 0.6
2018-Jan-05 11:00N 22°20' E 114°08'  
2018-Jan-03 02:37N 23°47' E 118°08'214.2
2018-Jan-03 02:28N 23°48' E 118°09'713.8
2018-Jan-03 01:59N 23°55' E 118°12'612.7
2018-Jan-03 01:30N 23°59' E 118°16'612.3
2018-Jan-03 01:00N 24°05' E 118°18'612.5
2018-Jan-03 00:30N 24°11' E 118°19'714.0
2018-Jan-03 00:00N 24°17' E 118°14'713.7
2018-Jan-02 23:31N 24°22' E 118°09'612.0
2018-Jan-02 23:00N 24°26' E 118°04'5 8.3
2018-Jan-02 22:26N 24°27' E 117°59'0 0.2
2018-Jan-02 21:59N 24°27' E 117°59'0 0.0
2018-Jan-02 21:29N 24°27' E 117°59'0 0.0
2018-Jan-02 20:59N 24°27' E 117°59'0 0.0
2018-Jan-02 20:29N 24°27' E 117°59'0 0.0
2018-Jan-02 19:59N 24°27' E 117°59'0 0.0
2018-Jan-02 19:29N 24°27' E 117°59'0 0.0
2018-Jan-02 18:59N 24°27' E 117°59'0 0.0
2018-Jan-02 18:29N 24°27' E 117°59'0 0.0
2018-Jan-02 17:59N 24°27' E 117°59'0 0.0
2018-Jan-02 17:26N 24°27' E 117°59'0 0.0
2018-Jan-02 16:59N 24°27' E 117°59'0 0.0
2018-Jan-02 16:29N 24°27' E 117°59'0 0.0
2018-Jan-02 15:56N 24°27' E 117°59'0 0.0
2018-Jan-02 15:26N 24°27' E 117°59'0 0.0
2018-Jan-02 14:56N 24°27' E 117°59'0 0.0
2018-Jan-02 14:26N 24°27' E 117°59'0 0.0
2018-Jan-02 13:56N 24°27' E 117°59'0 0.0
2018-Jan-02 13:26N 24°27' E 117°59'0 0.0
2018-Jan-02 12:56N 24°27' E 117°59'0 0.0
2018-Jan-02 12:29N 24°27' E 117°59'0 0.0
2018-Jan-02 11:56N 24°27' E 117°59'0 0.0
2018-Jan-02 11:26N 24°27' E 117°59'0 0.0
2018-Jan-02 10:59N 24°27' E 117°59'0 0.0
2018-Jan-02 10:29N 24°27' E 117°59'0 0.0
2018-Jan-02 09:50N 24°27' E 117°59'0 0.0
2018-Jan-02 09:20N 24°27' E 117°59'0 0.0
2018-Jan-02 08:29N 24°27' E 117°59'0 0.0
2018-Jan-02 07:59N 24°27' E 117°59'0 0.0
2018-Jan-02 07:29N 24°27' E 117°59'0 0.0
2018-Jan-02 06:59N 24°27' E 117°59'0 0.0
2018-Jan-02 06:26N 24°27' E 117°59'0 0.0
2018-Jan-02 05:56N 24°27' E 117°59'0 0.1
2018-Jan-02 05:29N 24°27' E 117°59'0 0.0
2018-Jan-02 04:23N 24°27' E 117°59'0 0.1
2018-Jan-02 03:44N 24°27' E 117°59'0 0.0
2018-Jan-02 03:29N 24°27' E 117°59'0 0.1
2018-Jan-02 02:38N 24°27' E 117°59'0 0.4
2018-Jan-02 02:29N 24°27' E 117°59'0 0.1
2018-Jan-02 02:00N 24°27' E 117°59'2 3.9
2018-Jan-02 01:30N 24°27' E 118°01'5 9.6
2018-Jan-02 01:00N 24°25' E 118°06'713.1
2018-Jan-02 00:31N 24°20' E 118°11'714.4
2018-Jan-02 00:01N 24°15' E 118°16'612.2
2018-Jan-01 23:31N 24°12' E 118°22'612.2
2018-Jan-01 23:00N 24°12' E 118°29'612.6
2018-Jan-01 22:30N 24°13' E 118°36'714.4
2018-Jan-01 22:00N 24°16' E 118°43'14914.9
2018-Jan-01 12:01N 25°26' E 121°08'1219.3
2018-Jan-01 11:22N 25°31' E 121°20'719.3
2018-Jan-01 11:00N 25°31' E 121°28'1019.9
2018-Jan-01 10:30N 25°29' E 121°39'917.3
2018-Jan-01 10:01N 25°31' E 121°48'1019.7
2018-Jan-01 09:30N 25°31' E 121°59'  
Track history (hours):
 
Tides and Currents Weather Stations Pressure Air Temp Water Temp Dewpoint Dewpoint Depression Visibility Wind Speed Wind Dir Waves Ship Positions

CSCL East China Sea

Last reported at 2018-Jan-08 03:10 UTC. Time now 2018-Jan-20 13:05 UTC.
Position N 23°55' E 118°26'.
Warning: this ship's position is 12 days out of date.

Length 335 m; draft 12.6 m.

Type: Cargo ship. MMSI: 477848700.

Date/timePositionNaut miles runAvg speedWind from/ knotsBaromVisibWave heightAir tempDewpointWater temp
2018-Jan-08 03:10N 23°55' E 118°26'320.4
2018-Jan-08 03:00N 23°53' E 118°23'253 5.6
2018-Jan-06 05:43N 22°20' E 114°07'0 0.0
2018-Jan-05 11:13N 22°20' E 114°08'0 0.6
2018-Jan-05 11:00N 22°20' E 114°08'  
2018-Jan-03 02:37N 23°47' E 118°08'214.2
2018-Jan-03 02:28N 23°48' E 118°09'713.8
2018-Jan-03 01:59N 23°55' E 118°12'612.7
2018-Jan-03 01:30N 23°59' E 118°16'612.3
2018-Jan-03 01:00N 24°05' E 118°18'612.5
2018-Jan-03 00:30N 24°11' E 118°19'714.0
2018-Jan-03 00:00N 24°17' E 118°14'713.7
2018-Jan-02 23:31N 24°22' E 118°09'612.0
2018-Jan-02 23:00N 24°26' E 118°04'5 8.3
2018-Jan-02 22:26N 24°27' E 117°59'0 0.2
2018-Jan-02 21:59N 24°27' E 117°59'0 0.0
2018-Jan-02 21:29N 24°27' E 117°59'0 0.0
2018-Jan-02 20:59N 24°27' E 117°59'0 0.0
2018-Jan-02 20:29N 24°27' E 117°59'0 0.0
2018-Jan-02 19:59N 24°27' E 117°59'0 0.0
2018-Jan-02 19:29N 24°27' E 117°59'0 0.0
2018-Jan-02 18:59N 24°27' E 117°59'0 0.0
2018-Jan-02 18:29N 24°27' E 117°59'0 0.0
2018-Jan-02 17:59N 24°27' E 117°59'0 0.0
2018-Jan-02 17:26N 24°27' E 117°59'0 0.0
2018-Jan-02 16:59N 24°27' E 117°59'0 0.0
2018-Jan-02 16:29N 24°27' E 117°59'0 0.0
2018-Jan-02 15:56N 24°27' E 117°59'0 0.0
2018-Jan-02 15:26N 24°27' E 117°59'0 0.0
2018-Jan-02 14:56N 24°27' E 117°59'0 0.0
2018-Jan-02 14:26N 24°27' E 117°59'0 0.0
2018-Jan-02 13:56N 24°27' E 117°59'0 0.0
2018-Jan-02 13:26N 24°27' E 117°59'0 0.0
2018-Jan-02 12:56N 24°27' E 117°59'0 0.0
2018-Jan-02 12:29N 24°27' E 117°59'0 0.0
2018-Jan-02 11:56N 24°27' E 117°59'0 0.0
2018-Jan-02 11:26N 24°27' E 117°59'0 0.0
2018-Jan-02 10:59N 24°27' E 117°59'0 0.0
2018-Jan-02 10:29N 24°27' E 117°59'0 0.0
2018-Jan-02 09:50N 24°27' E 117°59'0 0.0
2018-Jan-02 09:20N 24°27' E 117°59'0 0.0
2018-Jan-02 08:29N 24°27' E 117°59'0 0.0
2018-Jan-02 07:59N 24°27' E 117°59'0 0.0
2018-Jan-02 07:29N 24°27' E 117°59'0 0.0
2018-Jan-02 06:59N 24°27' E 117°59'0 0.0
2018-Jan-02 06:26N 24°27' E 117°59'0 0.0
2018-Jan-02 05:56N 24°27' E 117°59'0 0.1
2018-Jan-02 05:29N 24°27' E 117°59'0 0.0
2018-Jan-02 04:23N 24°27' E 117°59'0 0.1
2018-Jan-02 03:44N 24°27' E 117°59'0 0.0
2018-Jan-02 03:29N 24°27' E 117°59'0 0.1
2018-Jan-02 02:38N 24°27' E 117°59'0 0.4
2018-Jan-02 02:29N 24°27' E 117°59'0 0.1
2018-Jan-02 02:00N 24°27' E 117°59'2 3.9
2018-Jan-02 01:30N 24°27' E 118°01'5 9.6
2018-Jan-02 01:00N 24°25' E 118°06'713.1
2018-Jan-02 00:31N 24°20' E 118°11'714.4
2018-Jan-02 00:01N 24°15' E 118°16'612.2
2018-Jan-01 23:31N 24°12' E 118°22'612.2
2018-Jan-01 23:00N 24°12' E 118°29'612.6
2018-Jan-01 22:30N 24°13' E 118°36'714.4
2018-Jan-01 22:00N 24°16' E 118°43'14914.9
2018-Jan-01 12:01N 25°26' E 121°08'1219.3
2018-Jan-01 11:22N 25°31' E 121°20'719.3
2018-Jan-01 11:00N 25°31' E 121°28'1019.9
2018-Jan-01 10:30N 25°29' E 121°39'917.3
2018-Jan-01 10:01N 25°31' E 121°48'1019.7
2018-Jan-01 09:30N 25°31' E 121°59'  

Dump ship's entire track history